createdAt,value
2023-09-23T00:01:50.836Z,0.30
2023-09-23T00:04:23.859Z,0.52
2023-09-23T00:06:54.644Z,0.30
2023-09-23T00:09:25.085Z,0.40
2023-09-23T00:11:55.446Z,0.20
2023-09-23T00:14:26.394Z,0.25
2023-09-23T00:16:56.806Z,0.30
2023-09-23T00:19:31.248Z,0.20
2023-09-23T00:22:01.605Z,0.10
2023-09-23T00:24:32.016Z,0.38
2023-09-23T00:27:02.668Z,0.30
2023-09-23T00:29:33.857Z,0.20
2023-09-23T00:32:05.722Z,0.30
2023-09-23T00:34:39.102Z,0.20
2023-09-23T00:37:09.946Z,0.50
2023-09-23T00:39:43.782Z,0.40
2023-09-23T00:42:18.775Z,0.20
2023-09-23T00:44:49.120Z,0.45
2023-09-23T00:47:20.986Z,0.30
2023-09-23T00:49:54.059Z,0.38
2023-09-23T00:52:24.816Z,0.38
2023-09-23T00:54:55.227Z,0.30
2023-09-23T00:57:25.637Z,0.20
2023-09-23T00:59:56.975Z,0.70
2023-09-23T01:02:27.456Z,0.20
2023-09-23T01:05:00.557Z,0.20
2023-09-23T01:07:32.500Z,0.30
2023-09-23T01:10:04.419Z,0.35
2023-09-23T01:12:34.883Z,0.15
2023-09-23T01:15:19.528Z,0.50
2023-09-23T01:17:53.417Z,0.35
2023-09-23T01:20:27.179Z,0.32
2023-09-23T01:23:00.441Z,0.25
2023-09-23T01:25:30.906Z,0.30
2023-09-23T01:28:01.931Z,0.47
2023-09-23T01:30:33.546Z,0.30
2023-09-23T01:33:07.102Z,0.60
2023-09-23T01:35:37.555Z,0.45
2023-09-23T01:38:11.080Z,0.40
2023-09-23T01:40:44.855Z,0.60
2023-09-23T01:43:15.468Z,0.22
2023-09-23T01:45:46.084Z,0.60
2023-09-23T01:48:19.028Z,0.30
2023-09-23T01:50:52.404Z,0.25
2023-09-23T01:53:25.425Z,0.40
2023-09-23T01:55:55.841Z,0.32
2023-09-23T01:58:27.041Z,0.30
2023-09-23T02:00:59.565Z,0.40
2023-09-23T02:03:31.260Z,0.45
2023-09-23T02:06:02.597Z,0.20
2023-09-23T02:08:36.487Z,0.30
2023-09-23T02:11:06.981Z,0.30
2023-09-23T02:13:42.302Z,0.65
2023-09-23T02:16:13.061Z,0.50
2023-09-23T02:18:43.617Z,0.30
2023-09-23T02:21:14.179Z,0.40
2023-09-23T02:23:46.974Z,0.20
2023-09-23T02:28:49.446Z,0.50
2023-09-23T02:31:20.887Z,0.40
2023-09-23T02:33:51.364Z,0.50
2023-09-23T02:36:21.790Z,0.57
2023-09-23T02:38:54.465Z,0.57
2023-09-23T02:41:24.764Z,0.60
2023-09-23T02:43:55.536Z,0.70
2023-09-23T02:46:25.957Z,0.70
2023-09-23T02:48:56.414Z,0.47
2023-09-23T02:51:27.623Z,0.28
2023-09-23T02:54:00.337Z,0.40
2023-09-23T02:56:31.410Z,0.30
2023-09-23T02:59:02.219Z,0.32
2023-09-23T03:01:32.443Z,0.65
2023-09-23T03:04:08.634Z,0.40
2023-09-23T03:06:41.482Z,0.93
2023-09-23T03:09:14.172Z,0.40
2023-09-23T03:11:50.503Z,0.20
2023-09-23T03:14:24.265Z,0.40
2023-09-23T03:16:55.489Z,0.38
2023-09-23T03:19:26.918Z,0.50
2023-09-23T03:21:58.884Z,0.13
2023-09-23T03:24:32.768Z,0.55
2023-09-23T03:27:03.832Z,0.40
2023-09-23T03:29:34.550Z,0.22
2023-09-23T03:32:06.077Z,0.30
2023-09-23T03:34:39.209Z,0.20
2023-09-23T03:37:11.954Z,0.32
2023-09-23T03:39:44.911Z,0.40
2023-09-23T03:42:15.735Z,0.20
2023-09-23T03:44:47.492Z,0.25
2023-09-23T03:47:17.921Z,0.30
2023-09-23T03:49:48.305Z,0.20
2023-09-23T03:52:18.859Z,0.20
2023-09-23T03:54:54.009Z,0.20
2023-09-23T03:57:24.704Z,0.20
2023-09-23T03:59:55.048Z,0.43
2023-09-23T04:02:25.679Z,0.45
2023-09-23T04:04:56.086Z,0.40
2023-09-23T04:07:27.243Z,0.30
2023-09-23T04:09:59.846Z,0.50
2023-09-23T04:12:30.249Z,0.30
2023-09-23T04:15:00.726Z,0.35
2023-09-23T04:17:31.112Z,0.30
2023-09-23T04:20:11.272Z,0.20
2023-09-23T04:22:42.448Z,0.30
2023-09-23T04:25:15.608Z,0.47
2023-09-23T04:27:46.057Z,0.30
2023-09-23T04:30:16.641Z,0.30
2023-09-23T04:32:47.347Z,0.40
2023-09-23T04:35:17.931Z,0.30
2023-09-23T04:37:48.600Z,0.35
2023-09-23T04:40:21.682Z,0.20
2023-09-23T04:42:52.305Z,0.20
2023-09-23T04:45:22.522Z,0.30
2023-09-23T04:47:54.206Z,0.30
2023-09-23T04:50:26.410Z,0.30
2023-09-23T04:52:56.918Z,0.40
2023-09-23T04:55:30.208Z,0.52
2023-09-23T04:58:00.616Z,0.60
2023-09-23T05:00:34.053Z,0.38
2023-09-23T05:03:04.614Z,0.30
2023-09-23T05:05:36.045Z,0.17
2023-09-23T05:08:07.686Z,0.30
2023-09-23T05:10:41.105Z,0.28
2023-09-23T05:13:12.766Z,0.20
2023-09-23T05:15:44.271Z,0.40
2023-09-23T05:18:14.690Z,0.30
2023-09-23T05:20:47.267Z,0.20
2023-09-23T05:23:17.754Z,0.25
2023-09-23T05:25:51.615Z,0.60
2023-09-23T05:28:22.312Z,0.47
2023-09-23T05:30:54.613Z,0.30
2023-09-23T05:33:25.003Z,0.30
2023-09-23T05:35:55.711Z,0.55
2023-09-23T05:38:26.129Z,0.30
2023-09-23T05:40:59.108Z,0.30
2023-09-23T05:43:29.416Z,0.30
2023-09-23T05:45:59.809Z,0.50
2023-09-23T05:48:30.153Z,0.30
2023-09-23T05:51:07.996Z,0.30
2023-09-23T05:53:38.369Z,0.52
2023-09-23T05:56:11.347Z,0.40
2023-09-23T05:58:41.666Z,0.38
2023-09-23T06:01:14.496Z,0.60
2023-09-23T06:03:45.844Z,0.47
2023-09-23T06:06:16.453Z,0.50
2023-09-23T06:08:46.776Z,0.60
2023-09-23T06:11:19.491Z,0.73
2023-09-23T06:13:50.144Z,0.60
2023-09-23T06:16:20.522Z,0.70
2023-09-23T06:18:50.876Z,0.40
2023-09-23T06:21:21.695Z,0.70
2023-09-23T06:23:52.015Z,0.80
2023-09-23T06:26:24.783Z,0.68
2023-09-23T06:28:55.218Z,0.90
2023-09-23T06:31:25.644Z,0.60
2023-09-23T06:33:56.001Z,0.60
2023-09-23T06:36:26.329Z,0.88
2023-09-23T06:38:56.725Z,0.55
2023-09-23T06:41:29.478Z,1.13
2023-09-23T06:44:01.533Z,0.70
2023-09-23T06:46:32.211Z,0.85
2023-09-23T06:49:02.621Z,0.38
2023-09-23T06:51:33.016Z,0.60
2023-09-23T06:54:03.382Z,0.60
2023-09-23T06:56:36.152Z,0.70
2023-09-23T06:59:06.635Z,1.10
2023-09-23T07:01:37.848Z,0.88
2023-09-23T07:04:10.329Z,0.85
2023-09-23T07:06:40.797Z,0.57
2023-09-23T07:09:11.469Z,0.98
2023-09-23T07:11:44.170Z,0.90
2023-09-23T07:14:14.257Z,0.70
2023-09-23T07:16:44.720Z,0.82
2023-09-23T07:19:15.079Z,0.68
2023-09-23T07:21:45.444Z,0.95
2023-09-23T07:24:15.502Z,1.15
2023-09-23T07:26:48.174Z,1.00
2023-09-23T07:29:19.108Z,0.80
2023-09-23T07:31:49.568Z,0.80
2023-09-23T07:34:19.890Z,0.63
2023-09-23T07:36:50.386Z,1.15
2023-09-23T07:39:20.819Z,0.70
2023-09-23T07:41:53.504Z,1.05
2023-09-23T07:44:24.025Z,1.00
2023-09-23T07:46:54.332Z,0.88
2023-09-23T07:49:24.735Z,0.88
2023-09-23T07:51:57.364Z,0.80
2023-09-23T07:54:27.455Z,0.50
2023-09-23T07:57:00.448Z,1.20
2023-09-23T07:59:30.625Z,0.80
2023-09-23T08:02:00.812Z,0.93
2023-09-23T08:04:31.990Z,0.60
2023-09-23T08:07:02.315Z,1.45
2023-09-23T08:09:33.041Z,0.90
2023-09-23T08:12:05.741Z,0.60
2023-09-23T08:14:36.147Z,0.68
2023-09-23T08:17:06.721Z,1.00
2023-09-23T08:19:36.821Z,0.68
2023-09-23T08:22:06.831Z,0.90
2023-09-23T08:24:41.304Z,0.85
2023-09-23T08:27:14.066Z,0.50
2023-09-23T08:29:44.472Z,0.50
2023-09-23T08:32:14.904Z,0.35
2023-09-23T08:34:45.675Z,0.32
2023-09-23T08:37:16.062Z,0.40
2023-09-23T08:39:47.330Z,0.43
2023-09-23T08:42:21.250Z,0.40
2023-09-23T08:44:53.270Z,0.73
2023-09-23T08:47:23.897Z,0.10
2023-09-23T08:49:54.960Z,0.47
2023-09-23T08:52:26.303Z,0.45
2023-09-23T08:54:56.858Z,0.40
2023-09-23T08:57:29.953Z,0.30
2023-09-23T09:00:00.401Z,0.10
2023-09-23T09:02:31.206Z,0.40
2023-09-23T09:05:01.402Z,0.20
2023-09-23T09:07:37.363Z,0.52
2023-09-23T09:10:09.224Z,0.88
2023-09-23T09:12:42.040Z,0.30
2023-09-23T09:15:13.361Z,0.10
2023-09-23T09:17:46.112Z,0.20
2023-09-23T09:20:16.934Z,0.20
2023-09-23T09:22:47.653Z,0.10
2023-09-23T09:25:18.062Z,0.43
2023-09-23T09:27:52.209Z,0.15
2023-09-23T09:30:22.928Z,0.13
2023-09-23T09:32:54.922Z,0.10
2023-09-23T09:35:25.258Z,0.32
2023-09-23T09:38:07.341Z,0.20
2023-09-23T09:40:46.726Z,0.20
2023-09-23T09:43:21.777Z,0.25
2023-09-23T09:45:54.032Z,0.20
2023-09-23T09:48:27.725Z,0.13
2023-09-23T09:50:59.241Z,0.00
2023-09-23T09:53:30.016Z,0.00
2023-09-23T09:56:00.532Z,0.00
2023-09-23T09:58:41.232Z,0.22
2023-09-23T10:01:14.055Z,0.40
2023-09-23T10:03:47.255Z,0.28
2023-09-23T10:06:23.371Z,0.13
2023-09-23T10:08:55.090Z,0.00
2023-09-23T10:11:36.197Z,0.20
2023-09-23T10:14:18.576Z,0.10
2023-09-23T10:16:53.467Z,0.20
2023-09-23T10:19:33.837Z,0.30
2023-09-23T10:22:14.583Z,0.20
2023-09-23T10:24:45.230Z,0.20
2023-09-23T10:27:16.589Z,0.30
2023-09-23T10:29:51.349Z,0.20
2023-09-23T10:32:23.272Z,0.10
2023-09-23T10:34:54.796Z,0.05
2023-09-23T10:37:29.122Z,0.03
2023-09-23T10:39:59.640Z,0.40
2023-09-23T10:42:29.972Z,0.10
2023-09-23T10:45:04.920Z,0.20
2023-09-23T10:47:37.114Z,0.00
2023-09-23T10:50:09.356Z,0.10
2023-09-23T10:52:39.851Z,0.10
2023-09-23T10:55:12.388Z,0.30
2023-09-23T10:57:44.306Z,0.20
2023-09-23T11:00:22.104Z,0.08
2023-09-23T11:02:56.352Z,0.00
2023-09-23T11:05:28.701Z,0.30
2023-09-23T11:07:59.146Z,0.32
2023-09-23T11:10:31.896Z,0.10
2023-09-23T11:13:02.356Z,0.25
2023-09-23T11:15:36.331Z,0.10
2023-09-23T11:18:07.166Z,0.10
2023-09-23T11:20:38.916Z,0.10
2023-09-23T11:27:21.102Z,0.08
